Time;durP1;ratioP1;P1;durP2;ratioP2;P2;SDS_P1;SDS_P2;PMS_P1;PMS_P2;Temp;Humidity;BMP_temperature;BMP_pressure;BME280_temperature;BME280_humidity;BME280_pressure;Samples;Min_cycle;Max_cycle;Signal;HPM_P1;HPM_P2
2021/01/22 00:00:08;;;;;;;11.25;8.57;;;;;;;22.79;34.06;95295.31;4972397;28;20030;-80
2021/01/22 00:02:34;;;;;;;11.25;8.77;;;;;;;22.76;34.01;95312.66;4972552;28;20062;-81
2021/01/22 00:04:59;;;;;;;12.18;8.40;;;;;;;22.77;33.82;95303.25;4973557;28;20027;-80
2021/01/22 00:07:25;;;;;;;10.88;8.25;;;;;;;22.74;34.10;95293.34;4973288;28;20566;-81
2021/01/22 00:09:50;;;;;;;11.65;8.77;;;;;;;22.74;34.07;95304.25;4973693;28;20381;-81
2021/01/22 00:12:16;;;;;;;14.05;8.93;;;;;;;22.72;34.30;95306.69;4973218;28;20045;-81
2021/01/22 00:14:41;;;;;;;11.27;8.48;;;;;;;22.70;34.06;95303.75;4972118;28;20046;-78
2021/01/22 00:17:07;;;;;;;13.00;9.07;;;;;;;22.55;34.00;95281.50;4973691;28;20045;-81
2021/01/22 00:19:32;;;;;;;11.48;8.63;;;;;;;22.69;34.00;95304.97;4974131;28;20542;-81
2021/01/22 00:21:59;;;;;;;13.45;8.75;;;;;;;22.58;34.06;95275.06;4973263;28;20023;-81
2021/01/22 00:24:24;;;;;;;13.35;9.27;;;;;;;22.68;34.03;95289.91;4973048;28;20100;-82
2021/01/22 00:26:50;;;;;;;11.85;8.52;;;;;;;22.64;34.07;95284.69;4973310;28;20563;-81
2021/01/22 00:29:15;;;;;;;12.35;9.25;;;;;;;22.64;34.16;95305.72;4972710;28;20023;-80
2021/01/22 00:31:41;;;;;;;12.40;8.75;;;;;;;22.65;33.87;95288.16;4973294;28;20027;-81
2021/01/22 00:34:06;;;;;;;13.05;9.57;;;;;;;22.61;33.93;95279.50;4973228;28;20026;-81
2021/01/22 00:36:32;;;;;;;11.43;8.70;;;;;;;22.63;34.19;95310.44;4973266;28;20031;-81
2021/01/22 00:38:57;;;;;;;11.95;8.70;;;;;;;22.62;34.27;95297.34;4973147;28;20030;-80
2021/01/22 00:41:22;;;;;;;11.52;8.75;;;;;;;22.61;34.16;95312.16;4972334;28;20085;-81
2021/01/22 00:43:48;;;;;;;12.65;9.30;;;;;;;22.57;34.19;95306.22;4971633;28;20050;-81
2021/01/22 00:46:13;;;;;;;11.77;8.88;;;;;;;22.57;34.03;95284.44;4973020;28;20057;-80
2021/01/22 00:48:39;;;;;;;12.88;8.73;;;;;;;22.56;34.14;95304.75;4972568;28;20026;-81
2021/01/22 00:51:04;;;;;;;11.13;8.20;;;;;;;22.56;34.26;95296.59;4972991;28;20031;-80
2021/01/22 00:53:30;;;;;;;12.27;8.55;;;;;;;22.55;34.11;95297.81;4973413;28;20066;-81
2021/01/22 00:55:55;;;;;;;12.20;9.07;;;;;;;22.54;34.19;95277.28;4972968;28;20034;-81
2021/01/22 00:58:21;;;;;;;12.40;8.73;;;;;;;22.52;34.15;95307.72;4972272;28;20030;-80
2021/01/22 01:00:46;;;;;;;12.70;9.15;;;;;;;22.53;34.31;95297.59;4971062;28;20041;-81
2021/01/22 01:03:12;;;;;;;12.50;8.98;;;;;;;22.52;34.19;95272.34;4972517;28;20034;-81
2021/01/22 01:05:37;;;;;;;11.75;8.55;;;;;;;22.50;34.08;95290.41;4972370;28;20052;-81
2021/01/22 01:08:03;;;;;;;11.93;9.13;;;;;;;22.42;34.09;95278.56;4973316;28;20035;-81
2021/01/22 01:10:29;;;;;;;13.07;9.45;;;;;;;22.45;34.29;95261.97;4973097;28;20066;-81
2021/01/22 01:12:54;;;;;;;12.15;8.95;;;;;;;22.47;34.02;95280.53;4973216;28;20038;-80
2021/01/22 01:15:20;;;;;;;13.57;9.02;;;;;;;22.47;34.03;95269.63;4976582;28;20031;-80
2021/01/22 01:17:45;;;;;;;11.55;8.75;;;;;;;22.46;34.26;95249.09;4976534;28;20043;-81
2021/01/22 01:20:11;;;;;;;13.13;8.30;;;;;;;22.45;34.14;95258.50;4976147;28;20030;-81
2021/01/22 01:22:36;;;;;;;11.60;8.82;;;;;;;22.46;34.00;95270.88;4976144;28;20033;-81
2021/01/22 01:25:04;;;;;;;10.98;8.45;;;;;;;22.45;34.18;95261.22;4976397;28;20027;-80
2021/01/22 01:27:29;;;;;;;11.68;8.48;;;;;;;22.39;34.10;95276.81;4976347;28;20491;-81
2021/01/22 01:29:55;;;;;;;11.27;8.63;;;;;;;22.42;34.06;95262.22;4975942;28;20022;-81
2021/01/22 01:32:20;;;;;;;12.15;8.75;;;;;;;22.35;33.92;95259.28;4975949;28;20128;-81
2021/01/22 01:34:46;;;;;;;12.93;8.55;;;;;;;22.40;34.09;95248.38;4974979;28;20041;-81
2021/01/22 01:37:11;;;;;;;11.50;8.65;;;;;;;22.42;34.14;95256.78;4976192;28;20022;-82
2021/01/22 01:39:36;;;;;;;12.00;8.75;;;;;;;22.42;34.43;95243.19;4976052;28;20030;-81
2021/01/22 01:42:02;;;;;;;13.68;8.82;;;;;;;22.39;34.15;95236.00;4974817;28;20023;-80
2021/01/22 01:44:28;;;;;;;13.13;8.70;;;;;;;22.18;34.17;95204.84;4976261;28;20061;-81
2021/01/22 01:46:53;;;;;;;11.88;8.93;;;;;;;22.40;34.31;95242.91;4974998;28;20027;-81
2021/01/22 01:49:19;;;;;;;12.32;8.75;;;;;;;22.19;34.14;95228.06;4975384;28;20034;-81
2021/01/22 01:51:45;;;;;;;12.38;8.95;;;;;;;22.36;33.76;95247.91;4974177;28;20026;-80
2021/01/22 01:54:10;;;;;;;12.13;8.40;;;;;;;22.37;34.08;95237.75;4974417;28;20544;-80
2021/01/22 01:56:36;;;;;;;11.43;8.60;;;;;;;22.33;34.25;95234.53;4974952;28;20041;-81
2021/01/22 01:59:02;;;;;;;11.57;9.00;;;;;;;22.37;34.01;95238.47;4980018;28;20178;-80
2021/01/22 02:01:27;;;;;;;11.77;8.50;;;;;;;22.35;34.02;95219.19;4978555;28;20502;-80
2021/01/22 02:03:53;;;;;;;11.57;8.60;;;;;;;22.27;34.17;95214.75;4975242;28;20423;-80
2021/01/22 02:06:19;;;;;;;12.38;8.63;;;;;;;22.36;33.99;95231.56;4976150;28;20027;-80
2021/01/22 02:08:44;;;;;;;11.60;8.63;;;;;;;22.33;34.22;95238.00;4975502;28;20042;-81
2021/01/22 02:11:10;;;;;;;12.60;9.27;;;;;;;22.32;34.10;95241.94;4975075;28;20484;-80
2021/01/22 02:13:36;;;;;;;12.65;8.68;;;;;;;22.33;34.04;95232.56;4976338;28;20627;-81
2021/01/22 02:16:01;;;;;;;11.82;8.80;;;;;;;22.33;34.00;95227.13;4975872;28;20031;-81
2021/01/22 02:18:27;;;;;;;12.30;8.85;;;;;;;22.33;34.10;95232.56;4974344;28;20585;-81
2021/01/22 02:21:14;;;;;;;12.27;8.65;;;;;;;22.34;33.97;95236.75;4975765;28;20022;-81
2021/01/22 02:23:40;;;;;;;12.65;9.10;;;;;;;22.33;34.10;95235.28;4975823;28;20029;-81
2021/01/22 02:26:27;;;;;;;11.15;7.93;;;;;;;22.32;34.01;95225.63;4974033;28;20011;-81
2021/01/22 02:28:53;;;;;;;11.82;8.15;;;;;;;22.27;34.04;95218.22;4975485;28;20030;-80
2021/01/22 02:31:18;;;;;;;11.98;8.45;;;;;;;22.28;34.06;95225.13;4975688;28;20455;-80
2021/01/22 02:33:44;;;;;;;11.73;8.65;;;;;;;22.26;34.22;95216.72;4973653;28;20504;-81
2021/01/22 02:36:10;;;;;;;11.75;8.88;;;;;;;22.24;34.14;95213.78;4958049;28;20022;-81
2021/01/22 02:38:36;;;;;;;11.88;8.48;;;;;;;22.30;34.23;95222.66;4958151;28;20074;-81
2021/01/22 02:41:01;;;;;;;12.27;8.52;;;;;;;22.30;34.29;95221.91;4958226;28;20027;-81
2021/01/22 02:43:27;;;;;;;12.75;9.13;;;;;;;22.28;34.06;95230.56;4957485;28;20554;-80
2021/01/22 02:45:52;;;;;;;12.15;8.90;;;;;;;22.16;34.09;95201.13;4973992;28;20070;-81
2021/01/22 02:48:18;;;;;;;12.82;9.10;;;;;;;22.26;34.02;95216.72;4973862;28;20022;-80
2021/01/22 02:50:47;;;;;;;10.60;8.35;;;;;;;22.25;33.81;95226.13;4973893;28;20079;-79
2021/01/22 02:53:12;;;;;;;11.38;8.75;;;;;;;22.08;34.06;95186.56;4974486;28;20598;-81
2021/01/22 02:55:38;;;;;;;11.65;8.40;;;;;;;22.25;34.07;95215.25;4954645;29;20031;-81
2021/01/22 02:58:09;;;;;;;11.27;8.65;;;;;;;22.26;34.09;95211.28;4955316;29;20501;-80
2021/01/22 03:00:37;;;;;;;10.82;8.60;;;;;;;22.26;34.10;95216.72;4954179;29;20065;-81
2021/01/22 03:03:17;;;;;;;12.73;9.18;;;;;;;22.25;33.85;95220.69;4954223;29;20042;-81
2021/01/22 03:05:43;;;;;;;;;;;;;;;22.24;34.06;95219.22;4955291;29;20031;-81
2021/01/22 03:08:12;;;;;;;10.13;7.90;;;;;;;22.25;33.99;95228.84;4970167;28;19921;-81
2021/01/22 03:10:38;;;;;;;12.00;8.80;;;;;;;22.24;34.03;95235.53;4969771;28;20275;-81
2021/01/22 03:13:03;;;;;;;12.18;8.77;;;;;;;22.08;34.00;95190.00;4954025;29;20267;-81
2021/01/22 03:15:29;;;;;;;11.32;8.40;;;;;;;22.20;34.07;95221.41;4954228;29;20019;-81
2021/01/22 03:18:13;;;;;;;11.13;8.40;;;;;;;22.21;33.99;95214.78;4955139;28;20460;-80
2021/01/22 03:20:39;;;;;;;12.30;8.75;;;;;;;22.22;34.15;95210.78;4955233;28;20592;-80
2021/01/22 03:23:05;;;;;;;11.52;8.38;;;;;;;22.21;33.98;95212.03;4953763;29;20078;-80
2021/01/22 03:25:30;;;;;;;11.95;8.63;;;;;;;22.22;34.09;95231.81;4954617;29;20031;-80
2021/01/22 03:27:56;;;;;;;12.57;8.50;;;;;;;22.17;34.23;95222.41;4958941;28;20039;-81
2021/01/22 03:30:22;;;;;;;11.43;8.35;;;;;;;22.17;34.04;95225.13;4974168;28;20030;-80
2021/01/22 03:32:47;;;;;;;10.93;7.93;;;;;;;22.19;34.04;95232.78;4974324;28;20034;-81
2021/01/22 03:35:13;;;;;;;11.68;8.30;;;;;;;22.17;34.16;95227.84;4973688;28;20069;-80
2021/01/22 03:37:38;;;;;;;12.15;8.82;;;;;;;22.11;34.01;95243.41;4973726;28;20439;-81
2021/01/22 03:40:04;;;;;;;11.68;8.35;;;;;;;22.04;34.08;95219.44;4973955;28;20416;-81
2021/01/22 03:42:30;;;;;;;10.80;7.65;;;;;;;22.08;34.09;95227.34;4973600;28;20037;-81
2021/01/22 03:44:55;;;;;;;11.90;8.57;;;;;;;22.09;34.06;95207.81;4973727;28;20058;-81
2021/01/22 03:47:21;;;;;;;12.85;9.07;;;;;;;22.08;34.28;95217.22;4971762;28;20026;-80
2021/01/22 03:49:46;;;;;;;11.43;8.65;;;;;;;22.04;34.18;95211.28;4973570;28;20023;-81
2021/01/22 03:52:12;;;;;;;12.32;8.95;;;;;;;22.13;34.25;95227.34;4973595;28;20038;-81
2021/01/22 03:54:37;;;;;;;11.27;8.27;;;;;;;22.13;34.01;95218.44;4972638;28;20027;-80
2021/01/22 03:57:03;;;;;;;10.85;7.78;;;;;;;22.15;33.96;95226.84;4972404;28;20401;-80
2021/01/22 03:59:28;;;;;;;11.30;7.75;;;;;;;22.15;33.91;95219.44;4973448;28;20113;-80
2021/01/22 04:01:53;;;;;;;11.43;8.20;;;;;;;22.15;34.06;95226.84;4972967;28;20475;-81
2021/01/22 04:04:19;;;;;;;11.90;8.38;;;;;;;22.12;33.99;95216.94;4973415;28;20031;-81
2021/01/22 04:06:44;;;;;;;10.85;7.88;;;;;;;22.14;34.07;95219.94;4973254;28;20037;-81
2021/01/22 04:09:10;;;;;;;11.45;8.10;;;;;;;22.13;34.02;95227.34;4972273;28;20026;-81
2021/01/22 04:11:35;;;;;;;10.90;8.35;;;;;;;22.12;33.99;95223.16;4973404;28;20070;-81
2021/01/22 04:14:01;;;;;;;11.63;8.07;;;;;;;22.11;34.03;95221.66;4973463;28;20027;-81
2021/01/22 04:16:26;;;;;;;12.07;8.57;;;;;;;22.11;34.13;95227.09;4973359;28;20030;-81
2021/01/22 04:18:52;;;;;;;11.73;8.02;;;;;;;22.13;34.03;95223.88;4971106;28;20033;-88
2021/01/22 04:21:17;;;;;;;11.70;8.48;;;;;;;22.15;33.95;95238.47;4958277;28;20027;-80
2021/01/22 04:23:43;;;;;;;12.15;8.48;;;;;;;22.20;33.84;95248.59;4974364;28;20038;-80
2021/01/22 04:26:08;;;;;;;11.15;7.95;;;;;;;22.21;33.87;95247.41;4973930;28;20656;-81
2021/01/22 04:28:34;;;;;;;11.38;8.02;;;;;;;22.22;34.01;95221.66;4973074;28;20023;-84
2021/01/22 04:30:59;;;;;;;11.63;7.93;;;;;;;22.22;33.99;95227.09;4974597;28;20057;-82
2021/01/22 04:33:25;;;;;;;10.85;7.88;;;;;;;22.16;34.21;95204.59;4972083;28;20496;-85
2021/01/22 04:35:50;;;;;;;10.70;8.25;;;;;;;22.22;33.96;95213.50;4974230;28;20039;-84
2021/01/22 04:38:16;;;;;;;10.20;7.72;;;;;;;22.32;33.91;95225.63;4974133;28;20397;-85
2021/01/22 04:40:41;;;;;;;11.23;8.15;;;;;;;22.37;33.81;95227.59;4975072;28;20038;-83
2021/01/22 04:43:07;;;;;;;10.90;8.40;;;;;;;22.41;33.69;95225.38;4973479;28;20030;-81
2021/01/22 04:45:32;;;;;;;11.98;8.98;;;;;;;22.46;33.97;95216.44;4973285;28;20050;-79
2021/01/22 04:47:58;;;;;;;12.00;8.38;;;;;;;22.50;33.51;95206.06;4974015;28;20034;-80
2021/01/22 04:50:23;;;;;;;11.27;7.57;;;;;;;22.33;33.37;95156.38;4977946;28;20015;-79
2021/01/22 04:52:49;;;;;;;11.70;8.23;;;;;;;22.53;33.03;95183.28;4972100;28;20027;-85
2021/01/22 04:55:15;;;;;;;10.73;7.97;;;;;;;22.75;33.24;95224.03;4957539;28;20043;-81
2021/01/22 04:57:45;;;;;;;11.45;8.35;;;;;;;22.79;32.99;95221.81;4969575;28;20035;-87
2021/01/22 05:00:11;;;;;;;;;;;;;;;22.72;32.80;95203.25;4977494;28;20085;-82
2021/01/22 05:02:36;;;;;;;10.82;7.60;;;;;;;22.91;32.79;95216.56;4910906;28;19925;-81
2021/01/22 05:05:02;;;;;;;12.13;8.30;;;;;;;22.98;32.95;95209.88;4952057;28;20023;-81
2021/01/22 05:07:29;;;;;;;10.77;8.40;;;;;;;23.04;32.56;95208.59;4976254;28;20058;-78
2021/01/22 05:09:55;;;;;;;11.35;8.13;;;;;;;23.10;32.66;95222.94;4974656;28;20034;-78
2021/01/22 05:12:20;;;;;;;12.32;8.43;;;;;;;23.21;32.55;95203.81;4973834;28;20093;-76
2021/01/22 05:14:45;;;;;;;10.93;8.07;;;;;;;23.15;32.44;95178.59;4971895;28;20035;-79
2021/01/22 05:17:12;;;;;;;12.95;8.35;;;;;;;23.29;32.25;95206.75;4975105;28;20039;-82
2021/01/22 05:19:38;;;;;;;11.38;8.25;;;;;;;23.39;32.08;95214.13;4974156;28;20062;-81
2021/01/22 05:22:05;;;;;;;10.82;7.95;;;;;;;23.33;31.92;95202.50;4976432;28;20034;-82
2021/01/22 05:24:34;;;;;;;10.85;7.93;;;;;;;23.45;32.48;95217.56;4976722;28;20105;-80
2021/01/22 05:27:13;;;;;;;11.20;8.07;;;;;;;23.57;31.72;95205.34;4976264;28;20029;-80
2021/01/22 05:29:42;;;;;;;10.48;8.65;;;;;;;23.58;31.83;95207.56;4861720;28;20073;-84
2021/01/22 05:32:28;;;;;;;12.18;7.93;;;;;;;23.64;31.67;95204.84;4984063;28;20052;-77
2021/01/22 05:34:54;;;;;;;10.15;7.28;;;;;;;23.73;31.56;95201.78;4975234;28;20022;-76
2021/01/22 05:37:19;;;;;;;9.52;7.28;;;;;;;23.79;31.79;95199.78;4975453;28;20400;-78
2021/01/22 05:39:45;;;;;;;9.98;7.53;;;;;;;23.66;31.69;95172.34;4975608;28;20086;-81
2021/01/22 05:42:12;;;;;;;11.48;7.50;;;;;;;23.91;31.59;95186.25;4976038;28;20030;-81
2021/01/22 05:44:47;;;;;;;10.48;7.32;;;;;;;23.95;31.91;95197.66;4978812;28;20047;-81
2021/01/22 05:47:12;;;;;;;10.05;7.93;;;;;;;23.83;31.84;95172.97;4960898;28;20026;-74
2021/01/22 05:50:08;;;;;;;10.27;7.35;;;;;;;24.04;31.63;95205.50;4958266;28;20023;-75
2021/01/22 05:52:33;;;;;;;11.02;8.10;;;;;;;24.08;31.40;95200.53;4966006;28;20085;-72
2021/01/22 05:54:59;;;;;;;9.93;7.07;;;;;;;24.08;31.59;95192.34;4975746;28;20027;-73
2021/01/22 05:57:25;;;;;;;9.60;7.07;;;;;;;24.13;31.57;95191.53;4976073;28;20503;-76
2021/01/22 06:00:10;;;;;;;11.15;7.40;;;;;;;24.13;31.26;95175.16;4974464;28;20035;-76
2021/01/22 06:02:35;;;;;;;10.88;8.25;;;;;;;24.22;31.63;95193.94;4980469;28;20023;-77
2021/01/22 06:05:10;;;;;;;9.15;6.95;;;;;;;24.23;31.61;95200.13;4975627;28;20030;-76
2021/01/22 06:07:36;;;;;;;9.27;7.20;;;;;;;24.28;31.13;95207.53;4972550;28;20035;-78
2021/01/22 06:10:18;;;;;;;10.13;7.95;;;;;;;24.31;31.01;95196.34;4964747;28;20027;-78
2021/01/22 06:12:47;;;;;;;10.15;7.57;;;;;;;24.33;31.20;95199.31;4972221;28;20042;-80
2021/01/22 06:15:13;;;;;;;10.13;7.23;;;;;;;24.28;31.10;95174.78;4975067;28;20109;-80
2021/01/22 06:17:38;;;;;;;9.15;6.90;;;;;;;24.37;31.18;95180.69;4972447;28;20027;-77
2021/01/22 06:20:06;;;;;;;9.25;6.82;;;;;;;24.26;30.93;95183.50;4972620;28;20039;-73
2021/01/22 06:22:32;;;;;;;9.52;7.20;;;;;;;24.43;30.86;95200.47;4973183;28;20098;-75
2021/01/22 06:24:58;;;;;;;9.93;7.28;;;;;;;24.33;31.34;95174.75;4975519;28;20023;-82
2021/01/22 06:27:23;;;;;;;10.75;7.40;;;;;;;24.36;31.11;95179.94;4979900;28;20054;-77
2021/01/22 06:29:49;;;;;;;9.35;7.50;;;;;;;24.46;30.88;95191.25;4973930;28;20045;-75
2021/01/22 06:32:14;;;;;;;9.90;6.80;;;;;;;24.48;31.00;95178.59;4973641;28;20452;-75
2021/01/22 06:34:40;;;;;;;9.65;7.68;;;;;;;24.51;30.75;95193.19;4973310;28;20523;-77
2021/01/22 06:37:06;;;;;;;9.35;7.18;;;;;;;24.43;30.89;95164.97;4973072;28;20042;-76
2021/01/22 06:39:31;;;;;;;9.30;7.07;;;;;;;24.60;31.15;95201.03;4973969;28;20062;-78
2021/01/22 06:42:00;;;;;;;8.40;6.63;;;;;;;24.45;31.06;95162.47;4973666;28;20022;-82
2021/01/22 06:44:26;;;;;;;8.88;6.88;;;;;;;24.46;30.56;95180.34;4972858;28;20067;-76
2021/01/22 06:46:51;;;;;;;9.73;7.20;;;;;;;24.56;30.59;95187.69;4977178;28;20428;-76
2021/01/22 06:49:16;;;;;;;12.90;7.43;;;;;;;24.72;31.09;95186.00;4971355;28;20485;-79
2021/01/22 06:51:42;;;;;;;9.18;6.75;;;;;;;24.84;30.27;95188.84;4959797;28;20079;-81
2021/01/22 06:54:21;;;;;;;9.93;7.20;;;;;;;24.88;30.15;95183.81;4970622;28;20034;-75
2021/01/22 06:56:55;;;;;;;8.45;6.90;;;;;;;24.83;30.68;95176.44;4964801;28;20041;-74
2021/01/22 06:59:21;;;;;;;10.52;7.60;;;;;;;24.83;30.53;95176.44;4973342;28;20078;-80
2021/01/22 07:01:49;;;;;;;11.00;7.70;;;;;;;24.71;30.33;95152.50;4974661;28;20504;-77
2021/01/22 07:04:34;;;;;;;8.90;7.00;;;;;;;24.73;30.99;95165.66;4974029;28;20128;-81
2021/01/22 07:07:05;;;;;;;9.82;6.95;;;;;;;24.64;30.47;95160.53;4973777;28;20039;-88
2021/01/22 07:09:45;;;;;;;9.63;6.80;;;;;;;24.77;30.78;95168.81;4973249;28;20031;-90
2021/01/22 07:12:35;;;;;;;8.57;6.45;;;;;;;24.77;30.80;95177.00;4972043;28;20113;-78
2021/01/22 07:15:00;;;;;;;9.18;6.75;;;;;;;24.79;30.46;95169.06;4966872;28;20534;-80
2021/01/22 07:17:29;;;;;;;8.48;6.38;;;;;;;24.81;30.51;95172.00;4969523;28;20039;-82
2021/01/22 07:20:07;;;;;;;10.20;6.80;;;;;;;24.87;30.71;95171.44;4975665;28;20033;-81
2021/01/22 07:22:33;;;;;;;8.82;6.90;;;;;;;24.90;30.10;95170.41;4974163;28;20058;-80
2021/01/22 07:25:03;;;;;;;7.95;6.28;;;;;;;24.88;30.31;95178.34;4972386;28;20027;-78
2021/01/22 07:28:02;;;;;;;8.35;6.30;;;;;;;24.93;30.28;95185.75;4970566;28;20022;-78
2021/01/22 07:30:36;;;;;;;8.30;6.50;;;;;;;24.77;30.42;95171.53;4964214;28;20043;-81
2021/01/22 07:33:02;;;;;;;8.70;6.95;;;;;;;24.93;30.44;95188.50;4973964;28;20049;-76
2021/01/22 07:35:27;;;;;;;9.32;6.40;;;;;;;24.91;30.37;95188.25;4968156;28;20031;-75
2021/01/22 07:37:53;;;;;;;9.15;6.55;;;;;;;24.95;30.03;95183.25;4971479;28;20046;-79
2021/01/22 07:40:18;;;;;;;8.20;6.10;;;;;;;24.92;30.48;95170.63;4972418;28;20054;-84
2021/01/22 07:42:46;;;;;;;9.10;6.70;;;;;;;24.91;30.20;95177.31;4972629;28;20039;-84
2021/01/22 07:45:13;;;;;;;7.97;6.63;;;;;;;24.96;30.25;95182.00;4948189;28;20046;-81
2021/01/22 07:47:40;;;;;;;9.73;7.00;;;;;;;24.95;30.16;95177.78;4971308;28;20042;-81
2021/01/22 07:50:09;;;;;;;9.38;6.88;;;;;;;24.87;30.70;95176.88;4972578;28;20593;-80
2021/01/22 07:52:38;;;;;;;9.40;6.90;;;;;;;24.89;30.37;95168.91;4971188;28;20022;-78
2021/01/22 07:55:04;;;;;;;9.17;6.70;;;;;;;24.92;30.22;95170.63;4972811;28;20027;-74
2021/01/22 07:57:30;;;;;;;8.77;6.93;;;;;;;24.78;30.24;95151.19;4972734;28;20394;-76
2021/01/22 07:59:57;;;;;;;8.23;6.40;;;;;;;24.96;30.38;95157.41;4955909;28;20072;-78
2021/01/22 08:02:23;;;;;;;9.13;6.50;;;;;;;24.82;30.66;95142.16;4971312;28;20030;-83
2021/01/22 08:04:56;;;;;;;8.85;6.97;;;;;;;24.98;30.01;95152.16;4971234;28;20027;-83
2021/01/22 08:07:38;;;;;;;9.48;6.85;;;;;;;24.95;30.33;95155.91;4972507;28;20019;-84
2021/01/22 08:10:09;;;;;;;8.90;7.03;;;;;;;24.99;30.09;95161.88;4972427;28;20026;-83
2021/01/22 08:12:35;;;;;;;8.73;6.65;;;;;;;24.97;30.22;95175.25;4970878;28;20027;-85
2021/01/22 08:15:14;;;;;;;10.77;7.18;;;;;;;24.84;29.94;95145.13;4967600;28;20105;-83
2021/01/22 08:17:41;;;;;;;9.68;7.40;;;;;;;24.97;30.38;95169.78;4969928;28;20019;-82
2021/01/22 08:20:07;;;;;;;10.32;7.78;;;;;;;25.09;29.57;95178.63;4966449;28;20090;-85
2021/01/22 08:22:33;;;;;;;11.02;7.28;;;;;;;25.11;29.62;95168.66;4961709;28;20023;-76
2021/01/22 08:24:58;;;;;;;10.38;7.43;;;;;;;25.05;29.75;95154.34;4971799;28;20023;-77
2021/01/22 08:27:24;;;;;;;11.55;8.00;;;;;;;25.08;29.88;95156.03;4972438;28;20046;-78
2021/01/22 08:29:49;;;;;;;10.68;7.63;;;;;;;24.92;29.71;95143.28;4970717;28;20492;-77
2021/01/22 08:32:16;;;;;;;11.45;8.77;;;;;;;25.11;29.95;95163.22;4956218;28;20046;-81
2021/01/22 08:34:41;;;;;;;11.73;8.23;;;;;;;25.09;29.73;95159.50;4972133;28;20030;-83
2021/01/22 08:37:08;;;;;;;12.38;8.25;;;;;;;25.04;30.11;95147.38;4973536;28;20042;-83
2021/01/22 08:39:47;;;;;;;12.20;8.57;;;;;;;25.12;29.64;95148.25;4972736;28;20019;-84
2021/01/22 08:42:12;;;;;;;13.15;9.32;;;;;;;25.10;29.50;95172.66;4974202;28;20026;-87
2021/01/22 08:44:58;;;;;;;12.15;8.77;;;;;;;25.12;30.02;95137.34;4973617;28;20051;-82
2021/01/22 08:47:23;;;;;;;13.15;8.88;;;;;;;25.13;29.97;95149.75;4973934;28;20500;-83
2021/01/22 08:50:10;;;;;;;11.70;8.65;;;;;;;25.11;29.58;95141.34;4970957;28;20027;-81
2021/01/22 08:52:36;;;;;;;12.60;9.25;;;;;;;25.13;29.54;95140.81;4943909;28;20027;-83
2021/01/22 08:55:01;;;;;;;12.55;9.25;;;;;;;25.08;29.62;95109.59;4971089;28;20038;-83
2021/01/22 08:57:28;;;;;;;12.90;9.07;;;;;;;25.18;29.36;95131.81;4974023;28;20023;-84
2021/01/22 08:59:57;;;;;;;11.75;8.82;;;;;;;25.11;29.51;95124.94;4973039;28;20098;-84
2021/01/22 09:02:35;;;;;;;12.27;9.23;;;;;;;25.18;29.47;95129.78;4981766;28;20038;-84
2021/01/22 09:05:08;;;;;;;11.82;8.93;;;;;;;25.19;29.36;95131.28;4974077;28;20041;-80
2021/01/22 09:07:34;;;;;;;12.23;9.05;;;;;;;25.16;29.48;95120.66;4973701;28;20496;-84
2021/01/22 09:09:59;;;;;;;13.32;9.57;;;;;;;25.23;29.27;95120.81;4972435;28;20031;-81
2021/01/22 09:12:29;;;;;;;13.70;9.77;;;;;;;25.23;29.54;95129.00;4973506;28;20480;-86
2021/01/22 09:14:54;;;;;;;12.52;9.13;;;;;;;25.25;29.49;95128.47;4972934;28;20022;-83
2021/01/22 09:17:20;;;;;;;12.32;9.32;;;;;;;25.18;29.37;95113.41;4972382;28;20033;-86
2021/01/22 09:19:58;;;;;;;13.02;9.70;;;;;;;25.23;29.32;95109.88;4973458;28;20027;-83
2021/01/22 09:22:25;;;;;;;12.82;9.68;;;;;;;25.17;29.61;95101.00;4969493;28;20114;-84
2021/01/22 09:24:51;;;;;;;13.57;9.77;;;;;;;25.21;29.43;95106.91;4969585;28;20101;-84
2021/01/22 09:27:16;;;;;;;11.65;9.50;;;;;;;25.20;29.34;95110.91;4971651;28;20033;-85
2021/01/22 09:29:42;;;;;;;13.25;9.95;;;;;;;25.20;29.78;95113.63;4973038;28;20022;-85
2021/01/22 09:32:07;;;;;;;13.00;9.38;;;;;;;25.21;29.65;95084.31;4966797;28;20045;-85
2021/01/22 09:34:33;;;;;;;12.05;9.50;;;;;;;25.22;29.47;95089.25;4975315;28;20023;-87
2021/01/22 09:36:59;;;;;;;13.27;9.85;;;;;;;25.23;29.40;95093.47;4977138;28;20034;-85
2021/01/22 09:39:25;;;;;;;12.73;9.55;;;;;;;25.13;29.13;95045.91;4973494;28;20027;-85
2021/01/22 09:41:50;;;;;;;13.15;9.43;;;;;;;25.26;28.96;95076.03;4976965;28;20089;-84
2021/01/22 09:44:16;;;;;;;12.63;9.48;;;;;;;25.30;29.50;95054.56;4975501;28;20019;-85
2021/01/22 09:46:41;;;;;;;12.20;9.60;;;;;;;25.30;29.49;95060.03;4977145;28;20038;-84
2021/01/22 09:49:07;;;;;;;13.57;9.75;;;;;;;25.28;29.46;95089.91;4976920;28;20038;-83
2021/01/22 09:51:32;;;;;;;13.65;10.23;;;;;;;25.20;29.21;95050.78;4976085;28;20022;-77
2021/01/22 09:53:58;;;;;;;13.43;10.15;;;;;;;25.33;29.40;95037.13;4975242;28;20491;-79
2021/01/22 09:56:23;;;;;;;12.80;9.35;;;;;;;25.27;29.31;95039.22;4975511;28;20046;-81
2021/01/22 09:58:49;;;;;;;13.02;10.18;;;;;;;25.31;29.33;95042.41;4975174;28;20030;-79
2021/01/22 10:01:14;;;;;;;13.20;9.73;;;;;;;25.29;29.04;95031.25;4976326;28;20027;-82
2021/01/22 10:03:40;;;;;;;14.27;10.05;;;;;;;25.34;29.45;95028.41;4978012;28;20061;-88
2021/01/22 10:06:07;;;;;;;13.85;9.65;;;;;;;25.31;29.49;95026.00;4977382;28;20351;-84
2021/01/22 10:08:33;;;;;;;13.70;10.00;;;;;;;25.31;29.34;95031.47;4976012;28;20478;-88
2021/01/22 10:10:58;;;;;;;14.35;9.85;;;;;;;25.39;29.60;95013.91;4976401;28;20037;-79
2021/01/22 10:13:24;;;;;;;13.50;9.50;;;;;;;25.37;29.61;95032.09;4976534;28;20029;-86
2021/01/22 10:15:50;;;;;;;15.75;10.23;;;;;;;25.35;29.42;95012.72;4971889;28;20437;-87
2021/01/22 10:20:48;;;;;;;12.23;9.23;;;;;;;25.28;29.46;95029.75;4956986;28;20059;-89
2021/01/22 10:23:14;;;;;;;13.57;9.80;;;;;;;25.28;29.54;95035.22;4962631;28;20027;-84
2021/01/22 10:25:39;;;;;;;12.20;9.88;;;;;;;25.31;29.50;95026.72;4957293;28;20031;-86
2021/01/22 10:28:05;;;;;;;13.25;9.90;;;;;;;25.37;29.37;95016.44;4957465;28;20042;-83
2021/01/22 10:30:30;;;;;;;13.95;9.90;;;;;;;25.42;29.44;95017.59;4961059;28;20066;-83
2021/01/22 10:32:56;;;;;;;14.02;9.95;;;;;;;25.32;29.27;94991.94;4956504;28;20476;-94
2021/01/22 10:35:22;;;;;;;13.75;10.40;;;;;;;25.44;29.52;94998.66;4947653;29;20030;-86
2021/01/22 10:37:47;;;;;;;12.40;9.50;;;;;;;25.47;29.12;95003.09;4957068;28;20094;-81
2021/01/22 10:40:13;;;;;;;13.75;9.63;;;;;;;25.53;29.34;95011.94;4956673;28;20031;-81
2021/01/22 10:42:38;;;;;;;13.35;10.15;;;;;;;25.54;29.18;95008.69;4955468;28;20046;-76
2021/01/22 10:45:07;;;;;;;13.23;9.75;;;;;;;25.54;29.31;94986.06;4953870;28;20057;-79
2021/01/22 10:47:32;;;;;;;13.57;9.77;;;;;;;25.51;29.24;95003.53;4953960;28;20030;-75
2021/01/22 10:49:58;;;;;;;14.18;9.50;;;;;;;25.60;29.38;94989.44;4964507;28;20020;-86
2021/01/22 10:52:23;;;;;;;12.57;9.50;;;;;;;25.63;29.16;94967.25;4957242;29;20029;-93
2021/01/22 10:54:48;;;;;;;14.88;9.88;;;;;;;25.63;29.44;94982.94;4948048;28;20054;-83
2021/01/22 10:57:14;;;;;;;13.88;10.32;;;;;;;25.66;28.99;94966.22;4957356;28;20420;-86
2021/01/22 10:59:39;;;;;;;13.48;10.15;;;;;;;25.52;29.57;94950.31;4948540;28;20023;-86
2021/01/22 11:02:08;;;;;;;13.13;10.30;;;;;;;25.51;29.32;94943.38;4956754;28;20027;-77
2021/01/22 11:04:34;;;;;;;13.45;10.38;;;;;;;25.54;29.41;94931.38;4955445;28;20031;-79
2021/01/22 11:07:00;;;;;;;15.10;11.38;;;;;;;25.56;29.26;94929.59;4954869;28;20054;-80
2021/01/22 11:09:26;;;;;;;15.82;11.27;;;;;;;25.67;29.02;94939.63;4959892;28;20779;-88
2021/01/22 11:11:52;;;;;;;13.18;10.43;;;;;;;25.62;29.06;94915.81;4955669;28;20031;-79
2021/01/22 11:14:17;;;;;;;14.70;10.82;;;;;;;25.68;29.04;94927.41;4955389;28;20030;-85
2021/01/22 11:16:43;;;;;;;15.98;11.88;;;;;;;25.60;29.07;94912.88;4955392;28;20034;-88
2021/01/22 11:19:08;;;;;;;15.40;11.30;;;;;;;25.51;29.06;94889.41;4953445;28;20047;-87
2021/01/22 11:21:34;;;;;;;15.68;11.43;;;;;;;25.58;29.03;94893.53;4954868;28;20034;-86
2021/01/22 11:24:00;;;;;;;16.33;11.95;;;;;;;25.52;29.24;94890.16;4956539;28;20042;-86
2021/01/22 11:26:26;;;;;;;15.57;11.60;;;;;;;25.59;28.90;94911.38;4956338;28;20058;-86
2021/01/22 11:28:52;;;;;;;17.85;12.80;;;;;;;25.53;29.46;94902.56;4956671;28;20019;-85